Time;durP1;ratioP1;P1;durP2;ratioP2;P2;SDS_P1;SDS_P2;PMS_P1;PMS_P2;Temp;Humidity;BMP_temperature;BMP_pressure;BME280_temperature;BME280_humidity;BME280_pressure;Samples;Min_cycle;Max_cycle;Signal;HPM_P1;HPM_P2
2022/06/03 00:00:53;;;;;;;9.15;4.72;;;11.20;99.90;;;;;;5058069;28;20514;-60
2022/06/03 00:03:54;;;;;;;7.70;4.38;;;11.20;99.90;;;;;;5058092;28;20044;-60
2022/06/03 00:06:38;;;;;;;8.07;4.65;;;11.20;99.90;;;;;;5064925;28;20036;-59
2022/06/03 00:09:35;;;;;;;6.80;4.80;;;11.20;99.90;;;;;;5064315;28;20548;-59
2022/06/03 00:12:32;;;;;;;7.22;4.78;;;11.20;99.90;;;;;;5065868;28;20043;-59
2022/06/03 00:15:10;;;;;;;6.93;5.03;;;11.20;99.90;;;;;;5063254;28;20090;-59
2022/06/03 00:17:52;;;;;;;7.93;4.45;;;11.20;99.90;;;;;;5068111;28;20056;-59
2022/06/03 00:20:35;;;;;;;14.38;5.68;;;11.10;99.90;;;;;;5060316;28;20058;-59
2022/06/03 00:23:00;;;;;;;;;;;11.10;99.90;;;;;;5065262;28;20044;-59
2022/06/03 00:25:51;;;;;;;6.65;4.30;;;11.10;99.90;;;;;;5065597;28;19927;-59
2022/06/03 00:28:22;;;;;;;7.95;4.75;;;11.10;99.90;;;;;;5067708;28;20528;-58
2022/06/03 00:31:04;;;;;;;9.80;5.70;;;11.10;99.90;;;;;;5067027;28;20516;-57
2022/06/03 00:34:10;;;;;;;6.70;4.70;;;11.00;99.90;;;;;;5061839;28;20406;-59
2022/06/03 00:37:13;;;;;;;5.60;4.78;;;11.00;99.90;;;;;;5065670;28;20140;-59
2022/06/03 00:39:54;;;;;;;10.25;5.55;;;11.00;99.90;;;;;;5065399;28;20052;-59
2022/06/03 00:42:57;;;;;;;6.60;4.72;;;10.90;99.90;;;;;;5062266;28;20049;-60
2022/06/03 00:46:02;;;;;;;6.80;4.72;;;11.00;99.90;;;;;;5054364;28;20068;-59
2022/06/03 00:48:29;;;;;;;7.38;4.90;;;10.90;99.90;;;;;;5008158;28;20137;-57
2022/06/03 00:51:23;;;;;;;5.88;4.57;;;10.90;99.90;;;;;;5053790;28;20060;-57
2022/06/03 00:54:12;;;;;;;7.35;4.00;;;10.90;99.90;;;;;;5057219;28;20047;-59
2022/06/03 00:56:55;;;;;;;5.43;4.40;;;10.80;99.90;;;;;;5054298;28;20091;-59
2022/06/03 00:59:59;;;;;;;7.30;4.65;;;10.80;99.90;;;;;;5051332;28;20064;-59
2022/06/03 01:03:02;;;;;;;6.13;5.18;;;10.80;99.90;;;;;;5063941;28;20392;-59
2022/06/03 01:05:29;;;;;;;;;;;10.80;99.90;;;;;;5059257;28;20476;-59
2022/06/03 01:08:38;;;;;;;8.35;4.90;;;10.80;99.90;;;;;;5063033;28;20002;-59
2022/06/03 01:11:10;;;;;;;7.03;4.50;;;10.70;99.90;;;;;;5063552;28;20049;-60
2022/06/03 01:13:42;;;;;;;7.10;5.22;;;10.70;99.90;;;;;;5062828;28;20173;-60
2022/06/03 01:16:26;;;;;;;7.67;5.23;;;10.70;99.90;;;;;;5065116;28;20110;-59
2022/06/03 01:19:12;;;;;;;9.32;5.50;;;10.60;99.90;;;;;;5055099;28;20040;-58
2022/06/03 01:21:54;;;;;;;7.68;5.75;;;10.60;99.90;;;;;;5063138;28;20483;-60
2022/06/03 01:24:55;;;;;;;6.15;5.53;;;10.50;99.90;;;;;;5065499;28;20051;-59
2022/06/03 01:27:40;;;;;;;9.02;5.80;;;10.50;99.90;;;;;;5059949;28;20076;-60
2022/06/03 01:30:21;;;;;;;8.35;5.50;;;10.40;99.90;;;;;;5064435;28;20070;-59
2022/06/03 01:33:15;;;;;;;8.60;5.55;;;10.40;99.90;;;;;;5064567;28;20044;-59
2022/06/03 01:35:41;;;;;;;5.63;4.85;;;10.40;99.90;;;;;;5064569;28;20153;-59
2022/06/03 01:38:32;;;;;;;6.47;5.20;;;10.40;99.90;;;;;;5061055;28;20131;-59
2022/06/03 01:40:58;;;;;;;6.88;4.90;;;10.40;99.90;;;;;;5062842;28;20037;-59
2022/06/03 01:43:43;;;;;;;7.72;5.07;;;10.40;99.90;;;;;;5058312;28;20712;-57
2022/06/03 01:46:49;;;;;;;6.07;5.47;;;10.40;99.90;;;;;;5064077;28;20122;-59
2022/06/03 01:49:45;;;;;;;7.55;5.25;;;10.40;99.90;;;;;;5065225;28;20155;-59
2022/06/03 01:52:48;;;;;;;9.75;6.18;;;10.30;99.90;;;;;;5056988;28;20059;-58
2022/06/03 01:55:20;;;;;;;;;;;10.30;99.90;;;;;;5064942;28;20045;-58
2022/06/03 01:57:49;;;;;;;7.85;6.20;;;10.20;99.90;;;;;;5060772;28;19963;-58
2022/06/03 02:00:15;;;;;;;8.27;6.30;;;10.20;99.90;;;;;;5060277;28;20506;-60
2022/06/03 02:03:05;;;;;;;8.45;7.05;;;10.20;99.90;;;;;;5067244;28;20045;-59
2022/06/03 02:05:47;;;;;;;7.85;6.53;;;10.20;99.90;;;;;;5062570;28;20076;-60
2022/06/03 02:08:34;;;;;;;9.00;5.60;;;10.20;99.90;;;;;;5063942;28;20262;-60
2022/06/03 02:11:10;;;;;;;8.15;6.10;;;10.10;99.90;;;;;;5060742;28;20485;-59
2022/06/03 02:14:10;;;;;;;8.93;6.43;;;10.10;99.90;;;;;;5061076;28;20471;-60
2022/06/03 02:16:35;;;;;;;10.27;6.35;;;10.10;99.90;;;;;;5061324;28;20040;-59
2022/06/03 02:19:33;;;;;;;9.05;5.65;;;10.10;99.90;;;;;;5065850;28;20379;-59
2022/06/03 02:22:36;;;;;;;8.90;6.15;;;10.10;99.90;;;;;;5063137;28;20049;-60
2022/06/03 02:25:39;;;;;;;10.45;7.07;;;10.10;99.90;;;;;;5050763;28;20044;-57
2022/06/03 02:28:44;;;;;;;10.77;7.05;;;10.10;99.90;;;;;;5062798;28;20087;-57
2022/06/03 02:31:27;;;;;;;11.90;7.25;;;10.10;99.90;;;;;;5064825;28;20049;-57
2022/06/03 02:34:30;;;;;;;9.18;6.75;;;10.00;99.90;;;;;;5062869;28;20055;-57
2022/06/03 02:37:36;;;;;;;9.18;6.55;;;10.10;99.90;;;;;;5065424;28;20061;-57
2022/06/03 02:40:43;;;;;;;9.98;7.18;;;10.00;99.90;;;;;;5061576;28;20044;-59
2022/06/03 02:43:43;;;;;;;11.90;7.28;;;10.00;99.90;;;;;;5056836;28;20078;-57
2022/06/03 02:46:56;;;;;;;8.57;6.38;;;10.00;99.90;;;;;;5062705;28;20045;-57
2022/06/03 02:49:58;;;;;;;11.88;7.45;;;10.00;99.90;;;;;;4985352;28;20034;-58
2022/06/03 02:52:51;;;;;;;9.10;6.63;;;10.00;99.90;;;;;;4989676;28;20150;-59
2022/06/03 02:55:44;;;;;;;12.80;6.43;;;10.00;99.90;;;;;;5050552;28;20415;-59
2022/06/03 02:58:25;;;;;;;;;;;9.90;99.90;;;;;;5067092;28;20033;-60
2022/06/03 03:01:21;;;;;;;10.88;6.97;;;9.90;99.90;;;;;;5055585;28;19984;-59
2022/06/03 03:04:15;;;;;;;10.57;6.40;;;9.90;99.90;;;;;;5063230;28;20048;-56
2022/06/03 03:06:59;;;;;;;;;;;9.90;99.90;;;;;;5062078;28;20124;-57
2022/06/03 03:10:03;;;;;;;8.90;6.63;;;9.90;99.90;;;;;;5058992;28;19995;-58
2022/06/03 03:13:10;;;;;;;16.25;7.95;;;9.90;99.90;;;;;;5064396;28;20040;-57
2022/06/03 03:16:08;;;;;;;10.98;6.35;;;9.90;99.90;;;;;;4996120;28;20050;-56
2022/06/03 03:19:15;;;;;;;9.38;6.88;;;9.90;99.90;;;;;;5036294;28;20418;-57
2022/06/03 03:22:02;;;;;;;13.10;7.65;;;9.90;99.90;;;;;;5062110;28;20044;-58
2022/06/03 03:24:52;;;;;;;10.38;7.97;;;9.80;99.90;;;;;;5057139;28;20075;-57
2022/06/03 03:27:56;;;;;;;10.77;7.90;;;9.80;99.90;;;;;;5061776;28;20052;-57
2022/06/03 03:30:29;;;;;;;;;;;9.80;99.90;;;;;;5065730;28;20045;-58
2022/06/03 03:33:23;;;;;;;10.18;7.57;;;9.80;99.90;;;;;;5060367;28;19931;-57
2022/06/03 03:35:58;;;;;;;12.50;8.27;;;9.80;99.90;;;;;;5060558;28;20054;-58
2022/06/03 03:38:39;;;;;;;9.35;7.20;;;9.80;99.90;;;;;;5057679;28;20147;-57
2022/06/03 03:41:42;;;;;;;9.10;7.78;;;9.80;99.90;;;;;;5055161;28;20052;-57
2022/06/03 03:44:47;;;;;;;13.93;7.93;;;9.90;99.90;;;;;;5058526;28;20403;-58
2022/06/03 03:47:31;;;;;;;10.52;7.65;;;9.90;99.90;;;;;;5060068;28;20048;-57
2022/06/03 03:50:18;;;;;;;10.07;7.85;;;9.90;99.90;;;;;;5055056;28;20048;-57
2022/06/03 03:53:13;;;;;;;11.85;7.57;;;9.90;99.90;;;;;;5064571;28;20151;-57
2022/06/03 03:56:18;;;;;;;9.68;7.60;;;9.90;99.90;;;;;;5036150;28;20419;-57
2022/06/03 03:58:47;;;;;;;9.43;7.03;;;10.00;99.90;;;;;;5033012;28;20131;-56
2022/06/03 04:01:50;;;;;;;9.55;7.30;;;10.00;99.90;;;;;;5059698;28;20071;-58
2022/06/03 04:04:46;;;;;;;9.55;8.45;;;10.00;99.90;;;;;;5062393;28;20043;-58
2022/06/03 04:07:50;;;;;;;11.50;8.02;;;10.10;99.90;;;;;;5060635;28;20048;-57
2022/06/03 04:10:16;;;;;;;10.07;7.57;;;10.10;99.90;;;;;;5031406;28;20033;-58
2022/06/03 04:13:09;;;;;;;10.10;7.15;;;10.10;99.90;;;;;;5028301;28;20056;-57
2022/06/03 04:15:47;;;;;;;7.88;6.85;;;10.20;99.90;;;;;;5052191;28;20053;-57
2022/06/03 04:18:56;;;;;;;13.65;7.97;;;10.20;99.90;;;;;;5059968;28;20044;-58
2022/06/03 04:21:53;;;;;;;9.80;8.00;;;10.30;99.90;;;;;;5061764;28;20052;-58
2022/06/03 04:24:53;;;;;;;11.57;9.13;;;10.30;99.90;;;;;;5062215;28;20044;-58
2022/06/03 04:27:38;;;;;;;12.65;8.63;;;10.40;99.90;;;;;;5058018;28;20041;-57
2022/06/03 04:30:15;;;;;;;11.15;8.70;;;10.40;99.90;;;;;;5059252;28;20040;-58
2022/06/03 04:33:05;;;;;;;15.80;8.48;;;10.50;99.90;;;;;;5061887;28;20048;-57
2022/06/03 04:36:00;;;;;;;10.20;8.30;;;10.50;99.90;;;;;;5060747;28;20049;-58
2022/06/03 04:38:59;;;;;;;10.02;7.72;;;10.50;99.90;;;;;;5061105;28;20114;-58
2022/06/03 04:42:15;;;;;;;15.90;8.38;;;10.60;99.90;;;;;;5020657;28;20057;-57
2022/06/03 04:45:08;;;;;;;13.13;8.60;;;10.60;99.90;;;;;;5031317;28;20051;-58
2022/06/03 04:48:12;;;;;;;13.10;8.77;;;10.60;99.90;;;;;;5056690;28;20053;-57
2022/06/03 04:51:05;;;;;;;10.35;8.20;;;10.70;99.90;;;;;;5063045;28;20071;-57
2022/06/03 04:54:05;;;;;;;9.73;7.95;;;10.70;99.90;;;;;;5069288;28;20040;-57
2022/06/03 04:57:24;;;;;;;13.02;8.32;;;10.70;99.90;;;;;;5049910;28;20503;-57
2022/06/03 05:00:24;;;;;;;12.77;7.93;;;10.80;99.90;;;;;;4982088;28;20042;-59
2022/06/03 05:03:12;;;;;;;14.43;8.20;;;10.90;99.90;;;;;;4983649;28;20041;-59
2022/06/03 05:05:55;;;;;;;12.25;7.95;;;10.90;99.90;;;;;;5060010;28;20083;-59
2022/06/03 05:08:30;;;;;;;13.68;8.07;;;10.90;99.90;;;;;;5065633;28;20092;-59
2022/06/03 05:11:33;;;;;;;15.13;8.07;;;11.00;99.90;;;;;;5064464;28;20044;-59
2022/06/03 05:14:22;;;;;;;10.32;7.50;;;11.00;99.90;;;;;;5060308;28;20047;-59
2022/06/03 05:17:25;;;;;;;10.38;7.05;;;11.10;99.90;;;;;;5058328;28;20219;-59
2022/06/03 05:20:05;;;;;;;12.75;7.18;;;11.20;99.90;;;;;;5060132;28;20151;-59
2022/06/03 05:23:05;;;;;;;10.85;7.13;;;11.20;99.90;;;;;;5065952;28;20040;-59
2022/06/03 05:25:37;;;;;;;13.02;6.88;;;11.30;99.90;;;;;;5058212;28;20047;-59
2022/06/03 05:28:49;;;;;;;7.85;6.25;;;11.30;99.90;;;;;;5059741;28;20057;-58
2022/06/03 05:31:48;;;;;;;10.23;6.47;;;11.40;99.90;;;;;;5054331;28;20178;-60
2022/06/03 05:34:38;;;;;;;13.23;6.15;;;11.50;99.90;;;;;;5063911;28;20302;-59
2022/06/03 05:37:26;;;;;;;6.85;5.13;;;11.60;99.90;;;;;;5062637;28;20232;-59
2022/06/03 05:40:40;;;;;;;12.52;5.25;;;11.60;99.90;;;;;;5054997;28;20043;-59
2022/06/03 05:43:31;;;;;;;12.18;6.15;;;11.60;99.90;;;;;;5063354;28;20060;-59
2022/06/03 05:46:23;;;;;;;9.23;5.97;;;11.70;99.90;;;;;;5063929;28;20521;-59
2022/06/03 05:49:03;;;;;;;9.38;6.18;;;11.80;99.90;;;;;;5064695;28;20044;-59
2022/06/03 05:51:45;;;;;;;8.48;5.55;;;11.80;99.90;;;;;;5058681;28;20048;-59
2022/06/03 05:54:14;;;;;;;6.82;5.45;;;11.90;99.90;;;;;;5065724;28;20402;-59
2022/06/03 05:56:46;;;;;;;10.73;5.70;;;12.00;99.90;;;;;;5068270;28;20066;-59
2022/06/03 05:59:27;;;;;;;6.88;5.22;;;12.10;99.90;;;;;;5062375;28;20044;-58
2022/06/03 06:02:21;;;;;;;7.60;4.72;;;12.10;99.90;;;;;;5056442;28;20490;-59
2022/06/03 06:05:12;;;;;;;10.50;5.22;;;12.20;99.90;;;;;;5055718;28;20399;-59
2022/06/03 06:08:07;;;;;;;8.07;4.95;;;12.20;99.90;;;;;;5048339;28;20052;-58
2022/06/03 06:10:54;;;;;;;7.55;4.47;;;12.30;99.90;;;;;;5064519;28;20542;-59
2022/06/03 06:13:45;;;;;;;8.05;4.63;;;12.40;99.90;;;;;;5059133;28;20052;-58
2022/06/03 06:16:26;;;;;;;5.05;3.55;;;12.50;99.90;;;;;;5067991;28;20113;-58
2022/06/03 06:19:04;;;;;;;6.28;4.05;;;12.60;99.90;;;;;;5065888;28;20398;-59
2022/06/03 06:21:56;;;;;;;5.90;3.53;;;12.70;99.90;;;;;;5064641;28;20131;-57
2022/06/03 06:24:34;;;;;;;9.38;3.63;;;12.90;99.90;;;;;;5054758;28;20679;-58
2022/06/03 06:27:29;;;;;;;8.40;3.55;;;13.00;99.90;;;;;;5067669;28;20079;-59
2022/06/03 06:30:30;;;;;;;4.45;3.00;;;13.10;99.90;;;;;;5067735;28;20449;-58
2022/06/03 06:33:10;;;;;;;4.82;3.10;;;13.20;99.90;;;;;;5002790;28;20041;-58
2022/06/03 06:35:57;;;;;;;6.43;3.30;;;13.30;99.90;;;;;;5059960;28;20080;-59
2022/06/03 06:39:01;;;;;;;5.15;2.97;;;13.40;99.90;;;;;;5061090;28;20568;-59
2022/06/03 06:41:39;;;;;;;5.65;2.67;;;13.60;99.90;;;;;;5066670;28;20136;-59
2022/06/03 06:44:09;;;;;;;6.70;3.30;;;13.70;99.90;;;;;;5069254;28;20047;-57
2022/06/03 06:47:03;;;;;;;5.05;3.15;;;13.80;99.90;;;;;;5063762;28;20053;-59
2022/06/03 06:49:34;;;;;;;5.10;3.70;;;13.90;99.90;;;;;;5068301;28;20044;-59
2022/06/03 06:52:36;;;;;;;6.75;4.10;;;14.00;99.90;;;;;;5064221;28;20047;-58
2022/06/03 06:55:28;;;;;;;5.97;3.13;;;14.20;99.90;;;;;;5070100;28;20049;-58
2022/06/03 06:57:57;;;;;;;4.25;2.70;;;14.30;99.90;;;;;;5067155;28;20048;-58
2022/06/03 07:00:24;;;;;;;3.75;2.80;;;14.40;99.90;;;;;;5063004;28;20041;-59
2022/06/03 07:02:56;;;;;;;4.57;2.90;;;14.50;99.90;;;;;;5065961;28;20044;-58
2022/06/03 07:05:28;;;;;;;3.57;2.50;;;14.70;99.90;;;;;;5069232;28;20068;-59
2022/06/03 07:08:00;;;;;;;5.85;2.35;;;14.70;99.90;;;;;;5067628;28;20049;-58
2022/06/03 07:10:41;;;;;;;4.25;2.40;;;14.80;99.90;;;;;;5067962;28;20049;-59
2022/06/03 07:13:30;;;;;;;4.25;2.13;;;14.90;99.90;;;;;;5058018;28;20502;-58
2022/06/03 07:19:48;;;;;;;3.97;2.28;;;15.10;99.90;;;;;;5065803;28;20090;-59
2022/06/03 07:22:37;;;;;;;3.20;2.10;;;15.20;99.90;;;;;;5061305;28;20130;-59
2022/06/03 07:25:18;;;;;;;4.90;2.10;;;15.30;99.90;;;;;;5077872;28;20843;-59
2022/06/03 07:27:50;;;;;;;7.38;1.95;;;15.40;99.90;;;;;;5067203;28;20506;-59
2022/06/03 07:30:24;;;;;;;4.32;2.30;;;15.60;99.90;;;;;;5062060;28;20063;-59
2022/06/03 07:33:11;;;;;;;2.40;2.10;;;15.60;99.90;;;;;;5064348;28;20052;-58
2022/06/03 07:35:54;;;;;;;3.75;2.20;;;15.70;99.80;;;;;;5064173;28;20087;-58
2022/06/03 07:38:29;;;;;;;7.80;2.35;;;15.80;99.70;;;;;;5040478;28;20380;-58
2022/06/03 07:41:11;;;;;;;3.40;1.60;;;15.90;99.80;;;;;;5064690;28;20055;-59
2022/06/03 07:43:48;;;;;;;2.90;1.95;;;16.00;99.20;;;;;;5061963;28;20044;-59
2022/06/03 07:46:48;;;;;;;1.90;1.52;;;16.10;98.90;;;;;;5056573;28;22412;-57
2022/06/03 07:49:16;;;;;;;2.95;1.60;;;16.20;98.70;;;;;;5053225;28;20144;-59
2022/06/03 07:51:46;;;;;;;1.88;1.42;;;16.30;98.00;;;;;;5058391;28;20596;-58
2022/06/03 07:54:27;;;;;;;4.00;1.70;;;16.30;97.50;;;;;;5064236;28;20040;-59
2022/06/03 07:57:08;;;;;;;3.38;1.35;;;16.40;97.50;;;;;;5058690;28;20053;-59
2022/06/03 07:59:40;;;;;;;2.60;1.20;;;16.50;96.80;;;;;;5057198;28;20049;-59
2022/06/03 08:02:24;;;;;;;4.97;1.40;;;16.60;95.90;;;;;;5071598;28;20040;-59
2022/06/03 08:05:00;;;;;;;2.95;1.40;;;16.60;95.50;;;;;;5047510;28;20041;-59
2022/06/03 08:13:17;;;;;;;4.28;1.50;;;17.00;94.60;;;;;;5029052;28;20072;-60
2022/06/03 08:15:57;;;;;;;2.45;1.33;;;17.10;94.60;;;;;;5057774;28;20502;-59
2022/06/03 08:18:27;;;;;;;2.75;1.20;;;17.30;94.70;;;;;;5061489;28;20482;-59
2022/06/03 08:21:01;;;;;;;2.72;1.30;;;17.30;93.50;;;;;;5063109;28;20037;-59
2022/06/03 08:23:30;;;;;;;2.65;1.27;;;17.40;92.60;;;;;;5063758;28;20093;-59
2022/06/03 08:25:59;;;;;;;1.85;1.30;;;17.50;92.10;;;;;;5066406;28;20041;-59
2022/06/03 08:28:31;;;;;;;1.63;1.15;;;17.60;92.10;;;;;;5064237;28;20127;-59
2022/06/03 08:31:00;;;;;;;2.22;1.20;;;17.70;91.70;;;;;;5052629;28;20103;-60
2022/06/03 08:33:47;;;;;;;3.05;1.60;;;17.80;91.40;;;;;;5057029;28;20135;-58
2022/06/03 08:36:18;;;;;;;6.10;1.40;;;17.80;90.70;;;;;;5056674;28;20052;-58
2022/06/03 08:39:09;;;;;;;2.35;1.27;;;17.90;90.90;;;;;;5058421;28;20064;-58
2022/06/03 08:42:06;;;;;;;5.03;1.30;;;18.10;90.80;;;;;;5052563;28;20059;-59
2022/06/03 08:44:46;;;;;;;1.85;1.23;;;18.30;90.40;;;;;;5037553;28;20399;-58
2022/06/03 08:47:37;;;;;;;2.10;1.20;;;18.40;88.10;;;;;;5059527;28;20115;-59
2022/06/03 08:50:13;;;;;;;1.30;1.10;;;18.50;87.20;;;;;;5061274;28;20071;-58
2022/06/03 08:52:56;;;;;;;2.05;1.10;;;18.60;84.40;;;;;;5054345;28;20071;-59
2022/06/03 08:56:07;;;;;;;1.85;1.30;;;18.70;81.00;;;;;;5061862;28;20052;-59
2022/06/03 08:59:09;;;;;;;2.13;1.17;;;18.80;81.20;;;;;;5036207;28;21676;-59
2022/06/03 09:01:40;;;;;;;2.35;1.15;;;18.90;82.70;;;;;;5055251;28;20550;-59
2022/06/03 09:04:19;;;;;;;3.72;1.40;;;19.00;80.90;;;;;;5059450;28;20048;-59
2022/06/03 09:07:04;;;;;;;2.15;1.48;;;19.10;76.00;;;;;;5057360;28;20060;-58
2022/06/03 09:09:52;;;;;;;3.92;1.50;;;19.20;78.20;;;;;;5059580;28;20503;-58
2022/06/03 09:12:49;;;;;;;2.00;1.27;;;19.40;78.50;;;;;;5062325;28;20048;-58
2022/06/03 09:15:23;;;;;;;3.13;1.50;;;19.50;77.30;;;;;;5061199;28;20123;-59
2022/06/03 09:18:14;;;;;;;2.47;1.70;;;19.60;76.70;;;;;;5058319;28;20115;-58
2022/06/03 09:20:50;;;;;;;4.38;2.17;;;19.70;77.20;;;;;;5058443;28;20083;-59
2022/06/03 09:23:19;;;;;;;4.45;2.20;;;19.70;76.10;;;;;;5059131;28;20039;-59
2022/06/03 09:25:51;;;;;;;2.42;1.70;;;19.80;75.90;;;;;;5058870;28;20414;-60
2022/06/03 09:28:23;;;;;;;;;;;19.90;75.30;;;;;;5060486;28;20072;-60
2022/06/03 09:30:51;;;;;;;3.78;1.50;;;20.00;77.00;;;;;;5048289;28;19925;-59
2022/06/03 09:33:20;;;;;;;1.90;1.35;;;20.10;75.30;;;;;;5055324;28;20102;-59
2022/06/03 09:35:48;;;;;;;1.73;1.23;;;20.20;74.90;;;;;;5055373;28;20131;-59
2022/06/03 09:38:19;;;;;;;2.92;1.90;;;20.20;74.50;;;;;;5058476;28;20576;-59
2022/06/03 09:40:47;;;;;;;3.00;1.55;;;20.40;73.70;;;;;;5073398;28;20061;-59
2022/06/03 09:43:28;;;;;;;3.72;1.50;;;20.50;74.00;;;;;;5054137;28;20425;-59
2022/06/03 09:45:56;;;;;;;3.20;1.80;;;20.60;73.40;;;;;;5061242;28;20521;-59
2022/06/03 09:48:27;;;;;;;2.83;1.60;;;20.70;72.50;;;;;;5059495;28;20472;-60
2022/06/03 09:50:56;;;;;;;2.75;1.38;;;20.80;71.50;;;;;;5060724;28;20044;-59
2022/06/03 09:53:30;;;;;;;4.35;1.80;;;20.90;72.00;;;;;;5052912;28;20082;-59
2022/06/03 09:56:00;;;;;;;1.70;1.60;;;21.00;71.20;;;;;;5059557;28;20055;-59
2022/06/03 09:58:30;;;;;;;4.47;1.83;;;21.00;71.50;;;;;;5058910;28;21532;-59
2022/06/03 10:00:58;;;;;;;4.50;1.90;;;21.10;70.60;;;;;;5050463;28;20115;-60
2022/06/03 10:03:25;;;;;;;2.63;2.03;;;21.20;69.60;;;;;;5055384;28;20053;-59
2022/06/03 10:05:54;;;;;;;2.85;1.80;;;21.20;69.30;;;;;;5059702;28;20040;-60
2022/06/03 10:08:24;;;;;;;5.68;2.00;;;21.20;69.40;;;;;;5055687;28;20037;-60
2022/06/03 10:13:39;;;;;;;3.42;1.90;;;21.40;69.70;;;;;;5055238;28;20384;-59
2022/06/03 10:16:07;;;;;;;3.45;1.90;;;21.50;69.70;;;;;;5058891;28;20497;-59
2022/06/03 10:18:38;;;;;;;3.20;1.80;;;21.70;69.90;;;;;;5055310;28;20033;-59
2022/06/03 10:21:14;;;;;;;2.97;1.90;;;21.80;69.40;;;;;;5048587;28;20055;-59
2022/06/03 10:23:45;;;;;;;3.55;1.75;;;21.80;68.20;;;;;;5053264;28;20311;-59
2022/06/03 10:26:48;;;;;;;6.78;2.10;;;21.80;68.80;;;;;;5062332;28;20124;-59
2022/06/03 10:29:18;;;;;;;2.45;1.80;;;21.80;68.60;;;;;;5053973;28;20499;-60
2022/06/03 10:31:52;;;;;;;4.40;2.00;;;21.90;68.40;;;;;;5063181;28;20121;-60
2022/06/03 10:34:23;;;;;;;3.83;2.10;;;22.00;68.30;;;;;;5049318;28;20407;-59
2022/06/03 10:36:52;;;;;;;3.22;1.98;;;22.00;67.50;;;;;;5059371;28;20134;-59
2022/06/03 10:39:19;;;;;;;6.40;1.98;;;21.90;67.30;;;;;;5059465;28;20051;-60
2022/06/03 10:41:51;;;;;;;2.42;1.80;;;21.90;66.70;;;;;;5036137;28;20045;-60
2022/06/03 10:44:21;;;;;;;2.63;2.03;;;22.00;68.30;;;;;;5064254;28;20048;-59
2022/06/03 10:47:15;;;;;;;2.67;1.90;;;22.20;67.20;;;;;;5063779;28;20141;-59
2022/06/03 10:49:59;;;;;;;4.30;1.77;;;22.30;66.70;;;;;;5055224;28;20063;-59
2022/06/03 11:01:07;;;;;;;4.68;1.85;;;22.90;65.80;;;;;;5055024;28;20086;-59
2022/06/03 11:03:38;;;;;;;2.90;1.88;;;23.00;65.00;;;;;;5053463;28;20178;-59
2022/06/03 11:06:14;;;;;;;3.70;2.38;;;22.90;63.90;;;;;;5054021;28;20052;-63
2022/06/03 11:08:51;;;;;;;4.10;2.00;;;22.70;63.30;;;;;;5052253;28;20056;-60
2022/06/03 11:11:49;;;;;;;6.05;2.00;;;22.60;64.10;;;;;;5056001;28;20106;-60
2022/06/03 11:14:26;;;;;;;5.38;2.05;;;22.50;64.40;;;;;;5055516;28;20450;-59
2022/06/03 11:17:02;;;;;;;13.65;4.30;;;22.60;63.40;;;;;;5052526;28;20131;-60
2022/06/03 11:19:35;;;;;;;6.03;2.42;;;22.70;63.90;;;;;;5056144;28;20048;-59
2022/06/03 11:22:27;;;;;;;44.65;9.88;;;22.70;63.70;;;;;;5066556;28;20545;-61
2022/06/03 11:25:02;;;;;;;6.55;2.40;;;22.60;62.60;;;;;;5062012;28;20168;-62
2022/06/03 11:27:42;;;;;;;3.97;2.00;;;22.40;64.70;;;;;;5056530;28;20075;-62
2022/06/03 11:30:43;;;;;;;3.70;2.22;;;22.50;66.40;;;;;;5052320;28;20052;-62
2022/06/03 11:33:22;;;;;;;3.40;1.90;;;22.80;65.50;;;;;;5059508;28;20143;-62
2022/06/03 11:36:27;;;;;;;2.97;2.10;;;23.00;63.60;;;;;;5034947;28;20052;-62
2022/06/03 11:39:24;;;;;;;2.42;1.90;;;22.90;63.10;;;;;;5055006;28;20052;-63
2022/06/03 11:41:57;;;;;;;5.32;1.73;;;22.90;63.80;;;;;;5058979;28;20044;-62
2022/06/03 11:44:35;;;;;;;2.95;1.60;;;23.00;63.60;;;;;;5056017;28;20474;-63
2022/06/03 11:47:08;;;;;;;3.17;1.70;;;23.20;62.40;;;;;;5055919;28;20044;-63
2022/06/03 11:49:34;;;;;;;2.95;2.00;;;23.40;63.20;;;;;;5051243;28;20495;-63
2022/06/03 11:52:00;;;;;;;3.63;2.00;;;23.60;62.00;;;;;;5052650;28;20083;-64
2022/06/03 11:54:27;;;;;;;2.83;1.80;;;23.60;61.00;;;;;;5057015;28;21389;-64
2022/06/03 11:56:54;;;;;;;5.03;1.80;;;23.60;61.70;;;;;;5058595;28;20040;-63
2022/06/03 11:59:31;;;;;;;4.50;1.90;;;23.60;61.90;;;;;;5058362;28;20147;-64
2022/06/03 12:02:12;;;;;;;2.92;1.98;;;23.70;61.00;;;;;;5055654;28;20101;-64
2022/06/03 12:04:53;;;;;;;5.28;1.65;;;23.90;61.10;;;;;;5057074;28;20044;-64
2022/06/03 12:07:21;;;;;;;3.05;1.70;;;24.10;60.90;;;;;;5058546;28;20048;-63
2022/06/03 12:10:10;;;;;;;2.63;1.85;;;24.30;61.10;;;;;;5052792;28;20083;-64
2022/06/03 12:15:35;;;;;;;2.95;1.90;;;24.60;60.20;;;;;;5063646;28;20052;-61
2022/06/03 12:18:07;;;;;;;3.85;1.90;;;24.60;59.70;;;;;;5065384;28;20051;-61
2022/06/03 12:20:36;;;;;;;5.82;1.52;;;24.70;59.50;;;;;;5061217;28;20048;-62
2022/06/03 12:23:14;;;;;;;6.97;1.80;;;24.70;59.00;;;;;;5067921;28;20506;-61
2022/06/03 12:25:57;;;;;;;3.90;1.77;;;24.40;58.20;;;;;;5058916;28;20541;-61
2022/06/03 12:28:42;;;;;;;2.88;1.75;;;24.10;58.30;;;;;;5056093;28;20048;-61
2022/06/03 12:31:20;;;;;;;3.22;1.60;;;23.80;58.00;;;;;;5055849;28;20482;-63
2022/06/03 12:33:58;;;;;;;3.80;1.90;;;23.90;59.50;;;;;;5058343;28;20052;-63
2022/06/03 12:36:24;;;;;;;9.10;2.33;;;24.20;59.70;;;;;;5062483;28;20044;-63
2022/06/03 12:39:07;;;;;;;3.88;1.50;;;24.40;59.10;;;;;;5042988;28;20067;-63
2022/06/03 12:41:58;;;;;;;6.68;1.90;;;24.60;60.10;;;;;;5062949;28;20143;-63
2022/06/03 12:44:50;;;;;;;4.03;1.63;;;24.80;59.90;;;;;;5064230;28;20056;-63
2022/06/03 12:47:18;;;;;;;3.60;1.52;;;25.10;58.50;;;;;;5065045;28;20078;-64
2022/06/03 12:49:44;;;;;;;4.05;1.20;;;25.20;58.00;;;;;;5065493;28;20526;-64
2022/06/03 12:52:21;;;;;;;3.78;1.52;;;25.20;57.90;;;;;;5062470;28;20056;-64
2022/06/03 12:54:55;;;;;;;5.47;1.55;;;25.30;57.70;;;;;;5066540;28;20048;-64
2022/06/03 12:57:46;;;;;;;3.75;1.50;;;25.30;57.30;;;;;;5054627;28;20052;-65
2022/06/03 13:00:18;;;;;;;3.45;1.23;;;25.30;57.30;;;;;;5062449;28;20041;-65
2022/06/03 13:03:03;;;;;;;3.10;1.10;;;25.20;57.60;;;;;;5061381;28;20049;-65
2022/06/03 13:05:48;;;;;;;1.88;1.10;;;24.90;56.90;;;;;;5058887;28;20052;-65
2022/06/03 13:08:29;;;;;;;2.88;1.30;;;24.80;57.60;;;;;;5071208;28;20789;-65
2022/06/03 13:10:55;;;;;;;4.18;1.15;;;24.80;57.70;;;;;;5063870;28;20106;-66
2022/06/03 13:13:39;;;;;;;2.72;1.40;;;24.90;57.20;;;;;;5066616;28;20491;-65
2022/06/03 13:16:27;;;;;;;2.30;1.25;;;24.90;57.00;;;;;;5064116;28;20490;-65
2022/06/03 13:19:00;;;;;;;2.15;1.10;;;24.80;56.80;;;;;;5068594;28;20052;-65
2022/06/03 13:21:29;;;;;;;2.33;0.95;;;24.80;57.20;;;;;;5059155;28;20055;-65
2022/06/03 13:23:59;;;;;;;7.10;1.45;;;24.80;56.90;;;;;;5066889;28;20371;-65
2022/06/03 13:26:25;;;;;;;3.70;1.50;;;24.70;57.00;;;;;;5058569;28;20068;-65
2022/06/03 13:28:59;;;;;;;4.25;1.05;;;24.70;57.10;;;;;;5061840;28;20102;-65
2022/06/03 13:31:43;;;;;;;6.82;1.10;;;24.70;56.40;;;;;;5061080;28;20127;-65
2022/06/03 13:34:12;;;;;;;4.00;1.33;;;24.70;57.10;;;;;;5043290;28;20061;-65
2022/06/03 13:36:53;;;;;;;6.78;1.23;;;24.80;57.10;;;;;;5062715;28;20131;-66
2022/06/03 13:39:28;;;;;;;3.50;1.15;;;24.80;56.10;;;;;;5063050;28;20060;-64
2022/06/03 13:45:01;;;;;;;2.65;1.20;;;24.80;56.00;;;;;;5066431;28;20499;-66
2022/06/03 13:47:48;;;;;;;10.68;1.20;;;24.80;55.80;;;;;;5063497;28;20058;-66
2022/06/03 13:50:13;;;;;;;7.65;1.20;;;24.80;55.00;;;;;;5040423;28;20486;-66
2022/06/03 13:52:59;;;;;;;2.78;1.25;;;24.80;55.40;;;;;;5066424;28;20048;-66
2022/06/03 13:55:33;;;;;;;14.02;1.25;;;24.90;54.90;;;;;;5063168;28;20040;-66
2022/06/03 13:58:16;;;;;;;4.95;1.00;;;24.90;54.60;;;;;;5051264;28;20036;-66
2022/06/03 14:00:51;;;;;;;3.75;1.10;;;24.80;54.30;;;;;;5064465;28;20037;-66
2022/06/03 14:03:26;;;;;;;2.63;0.98;;;24.80;53.40;;;;;;5065476;28;20036;-67
2022/06/03 14:05:51;;;;;;;4.60;1.25;;;24.70;53.60;;;;;;5047015;28;20036;-66
2022/06/03 14:08:24;;;;;;;1.70;0.93;;;24.60;52.40;;;;;;5067307;28;20043;-66
2022/06/03 14:11:09;;;;;;;3.70;0.80;;;24.60;52.80;;;;;;5066801;28;20048;-67
2022/06/03 14:14:07;;;;;;;2.17;0.85;;;24.60;52.70;;;;;;5063355;28;20053;-66
2022/06/03 14:16:46;;;;;;;2.00;0.90;;;24.60;52.00;;;;;;5062307;28;20124;-66
2022/06/03 14:19:11;;;;;;;2.53;0.90;;;24.60;52.40;;;;;;5065759;28;20600;-66
2022/06/03 14:21:37;;;;;;;1.38;0.60;;;24.60;52.60;;;;;;5065939;28;20058;-66
2022/06/03 14:24:29;;;;;;;3.65;1.75;;;24.50;51.10;;;;;;5065045;28;20521;-66
2022/06/03 14:27:15;;;;;;;4.25;0.80;;;24.40;49.50;;;;;;5049164;28;20032;-66
2022/06/03 14:29:59;;;;;;;2.40;0.77;;;24.30;51.40;;;;;;5066070;28;20055;-66
2022/06/03 14:32:31;;;;;;;2.45;0.77;;;24.50;51.40;;;;;;5047644;28;20075;-66
2022/06/03 14:35:07;;;;;;;2.20;0.80;;;24.60;51.20;;;;;;5046524;28;20469;-64
2022/06/03 14:37:55;;;;;;;3.17;0.75;;;24.60;50.50;;;;;;5063416;28;20526;-65